sensor_id;sensor_type;location;lat;lon;timestamp;P1;durP1;ratioP1;P2;durP2;ratioP2
72325;SDS011;60278;47.980;18.780;2024-02-23T00:00:09;5.20;;;2.40;;
72325;SDS011;60278;47.980;18.780;2024-02-23T00:03:13;6.00;;;2.40;;
72325;SDS011;60278;47.980;18.780;2024-02-23T00:06:15;4.22;;;2.45;;
72325;SDS011;60278;47.980;18.780;2024-02-23T00:09:17;4.30;;;2.35;;
72325;SDS011;60278;47.980;18.780;2024-02-23T00:12:19;3.40;;;2.20;;
72325;SDS011;60278;47.980;18.780;2024-02-23T00:15:21;5.22;;;2.58;;
72325;SDS011;60278;47.980;18.780;2024-02-23T00:18:25;5.33;;;2.30;;
72325;SDS011;60278;47.980;18.780;2024-02-23T00:21:28;7.95;;;2.50;;
72325;SDS011;60278;47.980;18.780;2024-02-23T00:24:30;4.85;;;2.70;;
72325;SDS011;60278;47.980;18.780;2024-02-23T00:27:32;4.78;;;2.28;;
72325;SDS011;60278;47.980;18.780;2024-02-23T00:30:34;5.57;;;2.83;;
72325;SDS011;60278;47.980;18.780;2024-02-23T00:33:38;4.83;;;2.33;;
72325;SDS011;60278;47.980;18.780;2024-02-23T00:36:44;8.20;;;2.63;;
72325;SDS011;60278;47.980;18.780;2024-02-23T00:39:48;7.07;;;2.50;;
72325;SDS011;60278;47.980;18.780;2024-02-23T00:42:51;6.68;;;2.83;;
72325;SDS011;60278;47.980;18.780;2024-02-23T00:45:53;5.38;;;2.35;;
72325;SDS011;60278;47.980;18.780;2024-02-23T00:48:55;4.50;;;2.53;;
72325;SDS011;60278;47.980;18.780;2024-02-23T00:51:57;5.95;;;2.20;;
72325;SDS011;60278;47.980;18.780;2024-02-23T00:54:59;3.60;;;2.15;;
72325;SDS011;60278;47.980;18.780;2024-02-23T00:58:02;4.72;;;2.40;;
72325;SDS011;60278;47.980;18.780;2024-02-23T01:01:05;4.70;;;2.60;;
72325;SDS011;60278;47.980;18.780;2024-02-23T01:04:07;4.43;;;2.27;;
72325;SDS011;60278;47.980;18.780;2024-02-23T01:07:09;7.68;;;2.55;;
72325;SDS011;60278;47.980;18.780;2024-02-23T01:10:11;4.80;;;2.47;;
72325;SDS011;60278;47.980;18.780;2024-02-23T01:13:13;6.40;;;2.58;;
72325;SDS011;60278;47.980;18.780;2024-02-23T01:16:16;5.05;;;2.65;;
72325;SDS011;60278;47.980;18.780;2024-02-23T01:19:18;12.57;;;2.57;;
72325;SDS011;60278;47.980;18.780;2024-02-23T01:22:21;4.70;;;2.47;;
72325;SDS011;60278;47.980;18.780;2024-02-23T01:25:23;5.28;;;2.65;;
72325;SDS011;60278;47.980;18.780;2024-02-23T01:28:25;4.55;;;2.55;;
72325;SDS011;60278;47.980;18.780;2024-02-23T01:31:27;11.60;;;2.78;;
72325;SDS011;60278;47.980;18.780;2024-02-23T01:34:29;6.67;;;2.63;;
72325;SDS011;60278;47.980;18.780;2024-02-23T01:37:31;8.55;;;2.83;;
72325;SDS011;60278;47.980;18.780;2024-02-23T01:40:33;7.88;;;2.55;;
72325;SDS011;60278;47.980;18.780;2024-02-23T01:43:36;6.15;;;3.30;;
72325;SDS011;60278;47.980;18.780;2024-02-23T01:46:38;5.95;;;2.80;;
72325;SDS011;60278;47.980;18.780;2024-02-23T01:49:40;7.17;;;3.00;;
72325;SDS011;60278;47.980;18.780;2024-02-23T01:52:42;6.45;;;2.83;;
72325;SDS011;60278;47.980;18.780;2024-02-23T01:55:45;5.95;;;2.90;;
72325;SDS011;60278;47.980;18.780;2024-02-23T01:58:47;5.70;;;3.45;;
72325;SDS011;60278;47.980;18.780;2024-02-23T02:01:50;6.88;;;3.10;;
72325;SDS011;60278;47.980;18.780;2024-02-23T02:04:52;6.43;;;3.17;;
72325;SDS011;60278;47.980;18.780;2024-02-23T02:07:55;5.50;;;3.00;;
72325;SDS011;60278;47.980;18.780;2024-02-23T02:11:01;5.68;;;3.13;;
72325;SDS011;60278;47.980;18.780;2024-02-23T02:14:03;8.98;;;3.50;;
72325;SDS011;60278;47.980;18.780;2024-02-23T02:17:05;6.07;;;2.90;;
72325;SDS011;60278;47.980;18.780;2024-02-23T02:20:12;5.30;;;3.17;;
72325;SDS011;60278;47.980;18.780;2024-02-23T02:23:14;5.00;;;2.83;;
72325;SDS011;60278;47.980;18.780;2024-02-23T02:26:16;7.25;;;3.45;;
72325;SDS011;60278;47.980;18.780;2024-02-23T02:29:18;5.63;;;3.60;;
72325;SDS011;60278;47.980;18.780;2024-02-23T02:32:21;6.40;;;3.65;;
72325;SDS011;60278;47.980;18.780;2024-02-23T02:35:23;7.60;;;3.33;;
72325;SDS011;60278;47.980;18.780;2024-02-23T02:38:25;6.22;;;3.33;;
72325;SDS011;60278;47.980;18.780;2024-02-23T02:41:28;7.22;;;3.50;;
72325;SDS011;60278;47.980;18.780;2024-02-23T02:44:31;6.05;;;3.65;;
72325;SDS011;60278;47.980;18.780;2024-02-23T02:47:33;6.82;;;3.78;;
72325;SDS011;60278;47.980;18.780;2024-02-23T02:50:38;7.03;;;3.53;;
72325;SDS011;60278;47.980;18.780;2024-02-23T02:53:41;8.65;;;3.60;;
72325;SDS011;60278;47.980;18.780;2024-02-23T02:56:43;8.52;;;3.47;;
72325;SDS011;60278;47.980;18.780;2024-02-23T02:59:45;8.00;;;3.58;;
72325;SDS011;60278;47.980;18.780;2024-02-23T03:02:48;6.53;;;3.85;;
72325;SDS011;60278;47.980;18.780;2024-02-23T03:05:50;6.83;;;3.60;;
72325;SDS011;60278;47.980;18.780;2024-02-23T03:08:52;6.72;;;3.75;;
72325;SDS011;60278;47.980;18.780;2024-02-23T03:11:54;7.88;;;4.03;;
72325;SDS011;60278;47.980;18.780;2024-02-23T03:14:56;10.25;;;4.00;;
72325;SDS011;60278;47.980;18.780;2024-02-23T03:17:58;8.10;;;4.25;;
72325;SDS011;60278;47.980;18.780;2024-02-23T03:21:03;6.30;;;3.70;;
72325;SDS011;60278;47.980;18.780;2024-02-23T03:24:05;6.95;;;3.72;;
72325;SDS011;60278;47.980;18.780;2024-02-23T03:27:07;6.85;;;4.05;;
72325;SDS011;60278;47.980;18.780;2024-02-23T03:30:09;6.65;;;3.83;;
72325;SDS011;60278;47.980;18.780;2024-02-23T03:33:12;6.47;;;3.90;;
72325;SDS011;60278;47.980;18.780;2024-02-23T03:36:14;7.53;;;4.40;;
72325;SDS011;60278;47.980;18.780;2024-02-23T03:39:16;6.90;;;4.63;;
72325;SDS011;60278;47.980;18.780;2024-02-23T03:42:18;6.78;;;3.97;;
72325;SDS011;60278;47.980;18.780;2024-02-23T03:45:20;7.10;;;4.03;;
72325;SDS011;60278;47.980;18.780;2024-02-23T03:48:22;7.93;;;4.10;;
72325;SDS011;60278;47.980;18.780;2024-02-23T03:51:24;6.47;;;3.50;;
72325;SDS011;60278;47.980;18.780;2024-02-23T03:54:26;6.15;;;3.70;;
72325;SDS011;60278;47.980;18.780;2024-02-23T03:57:28;6.05;;;3.78;;
72325;SDS011;60278;47.980;18.780;2024-02-23T04:00:30;5.85;;;3.60;;
72325;SDS011;60278;47.980;18.780;2024-02-23T04:03:32;7.30;;;4.10;;
72325;SDS011;60278;47.980;18.780;2024-02-23T04:06:34;5.37;;;3.57;;
72325;SDS011;60278;47.980;18.780;2024-02-23T04:09:37;8.15;;;4.22;;
72325;SDS011;60278;47.980;18.780;2024-02-23T04:12:39;8.65;;;4.03;;
72325;SDS011;60278;47.980;18.780;2024-02-23T04:15:41;6.13;;;3.83;;
72325;SDS011;60278;47.980;18.780;2024-02-23T04:18:43;32.55;;;14.15;;
72325;SDS011;60278;47.980;18.780;2024-02-23T04:21:45;18.77;;;11.23;;
72325;SDS011;60278;47.980;18.780;2024-02-23T04:24:47;32.08;;;19.77;;
72325;SDS011;60278;47.980;18.780;2024-02-23T04:27:49;14.30;;;8.57;;
72325;SDS011;60278;47.980;18.780;2024-02-23T04:30:52;7.65;;;4.80;;
72325;SDS011;60278;47.980;18.780;2024-02-23T04:33:54;10.52;;;5.10;;
72325;SDS011;60278;47.980;18.780;2024-02-23T04:36:56;12.43;;;7.50;;
72325;SDS011;60278;47.980;18.780;2024-02-23T04:39:58;7.68;;;4.95;;
72325;SDS011;60278;47.980;18.780;2024-02-23T04:43:00;21.08;;;10.40;;
72325;SDS011;60278;47.980;18.780;2024-02-23T04:46:02;14.52;;;8.55;;
72325;SDS011;60278;47.980;18.780;2024-02-23T04:49:04;9.82;;;5.65;;
72325;SDS011;60278;47.980;18.780;2024-02-23T04:52:07;31.77;;;12.90;;
72325;SDS011;60278;47.980;18.780;2024-02-23T04:55:10;23.75;;;10.50;;
72325;SDS011;60278;47.980;18.780;2024-02-23T04:58:12;20.30;;;8.48;;
72325;SDS011;60278;47.980;18.780;2024-02-23T05:01:14;20.10;;;7.82;;
72325;SDS011;60278;47.980;18.780;2024-02-23T05:04:17;18.48;;;7.70;;
72325;SDS011;60278;47.980;18.780;2024-02-23T05:07:19;14.90;;;6.07;;
72325;SDS011;60278;47.980;18.780;2024-02-23T05:10:21;20.58;;;8.35;;
72325;SDS011;60278;47.980;18.780;2024-02-23T05:13:24;13.48;;;6.47;;
72325;SDS011;60278;47.980;18.780;2024-02-23T05:16:26;19.95;;;8.55;;
72325;SDS011;60278;47.980;18.780;2024-02-23T05:19:28;31.75;;;12.45;;
72325;SDS011;60278;47.980;18.780;2024-02-23T05:22:33;13.30;;;5.60;;
72325;SDS011;60278;47.980;18.780;2024-02-23T05:25:35;44.75;;;15.88;;
72325;SDS011;60278;47.980;18.780;2024-02-23T05:28:37;27.48;;;11.38;;
72325;SDS011;60278;47.980;18.780;2024-02-23T05:31:44;37.88;;;15.63;;
72325;SDS011;60278;47.980;18.780;2024-02-23T05:34:46;18.23;;;7.55;;
72325;SDS011;60278;47.980;18.780;2024-02-23T05:37:48;21.77;;;9.13;;
72325;SDS011;60278;47.980;18.780;2024-02-23T05:40:51;89.20;;;29.13;;
72325;SDS011;60278;47.980;18.780;2024-02-23T05:43:54;32.75;;;12.70;;
72325;SDS011;60278;47.980;18.780;2024-02-23T05:46:56;57.70;;;20.33;;
72325;SDS011;60278;47.980;18.780;2024-02-23T05:49:58;15.88;;;7.65;;
72325;SDS011;60278;47.980;18.780;2024-02-23T05:53:00;28.73;;;13.17;;
72325;SDS011;60278;47.980;18.780;2024-02-23T05:56:02;14.05;;;6.90;;
72325;SDS011;60278;47.980;18.780;2024-02-23T05:59:05;23.70;;;8.98;;
72325;SDS011;60278;47.980;18.780;2024-02-23T06:02:08;12.52;;;5.45;;
72325;SDS011;60278;47.980;18.780;2024-02-23T06:05:11;22.65;;;10.10;;
72325;SDS011;60278;47.980;18.780;2024-02-23T06:08:13;11.97;;;4.67;;
72325;SDS011;60278;47.980;18.780;2024-02-23T06:11:16;20.70;;;7.53;;
72325;SDS011;60278;47.980;18.780;2024-02-23T06:14:18;9.60;;;4.20;;
72325;SDS011;60278;47.980;18.780;2024-02-23T06:17:20;16.55;;;7.20;;
72325;SDS011;60278;47.980;18.780;2024-02-23T06:20:22;6.10;;;2.88;;
72325;SDS011;60278;47.980;18.780;2024-02-23T06:23:24;9.63;;;3.53;;
72325;SDS011;60278;47.980;18.780;2024-02-23T06:26:26;8.95;;;4.15;;
72325;SDS011;60278;47.980;18.780;2024-02-23T06:29:31;6.10;;;3.00;;
72325;SDS011;60278;47.980;18.780;2024-02-23T06:32:34;6.47;;;3.08;;
72325;SDS011;60278;47.980;18.780;2024-02-23T06:35:36;8.43;;;2.58;;
72325;SDS011;60278;47.980;18.780;2024-02-23T06:38:38;6.90;;;2.37;;
72325;SDS011;60278;47.980;18.780;2024-02-23T06:41:40;4.10;;;2.22;;
72325;SDS011;60278;47.980;18.780;2024-02-23T06:44:45;9.00;;;4.35;;
72325;SDS011;60278;47.980;18.780;2024-02-23T06:47:47;8.45;;;2.20;;
72325;SDS011;60278;47.980;18.780;2024-02-23T06:50:49;5.28;;;2.50;;
72325;SDS011;60278;47.980;18.780;2024-02-23T06:53:51;6.17;;;2.83;;
72325;SDS011;60278;47.980;18.780;2024-02-23T06:56:53;4.70;;;2.17;;
72325;SDS011;60278;47.980;18.780;2024-02-23T06:59:56;5.18;;;2.58;;
72325;SDS011;60278;47.980;18.780;2024-02-23T07:02:58;5.97;;;2.85;;
72325;SDS011;60278;47.980;18.780;2024-02-23T07:06:01;9.20;;;3.30;;
72325;SDS011;60278;47.980;18.780;2024-02-23T07:09:03;5.83;;;2.40;;
72325;SDS011;60278;47.980;18.780;2024-02-23T07:12:05;7.93;;;3.33;;
72325;SDS011;60278;47.980;18.780;2024-02-23T07:15:08;7.57;;;4.22;;
72325;SDS011;60278;47.980;18.780;2024-02-23T07:18:10;14.85;;;5.85;;
72325;SDS011;60278;47.980;18.780;2024-02-23T07:21:12;8.15;;;3.53;;
72325;SDS011;60278;47.980;18.780;2024-02-23T07:24:14;4.83;;;1.60;;
72325;SDS011;60278;47.980;18.780;2024-02-23T07:27:16;12.13;;;5.57;;
72325;SDS011;60278;47.980;18.780;2024-02-23T07:30:18;6.43;;;3.35;;
72325;SDS011;60278;47.980;18.780;2024-02-23T07:33:20;5.55;;;2.42;;
72325;SDS011;60278;47.980;18.780;2024-02-23T07:36:23;5.18;;;2.47;;
72325;SDS011;60278;47.980;18.780;2024-02-23T07:39:25;17.97;;;5.60;;
72325;SDS011;60278;47.980;18.780;2024-02-23T07:42:27;9.00;;;3.25;;
72325;SDS011;60278;47.980;18.780;2024-02-23T07:45:29;11.52;;;4.70;;
72325;SDS011;60278;47.980;18.780;2024-02-23T07:48:31;13.32;;;5.13;;
72325;SDS011;60278;47.980;18.780;2024-02-23T07:51:34;17.75;;;6.35;;
72325;SDS011;60278;47.980;18.780;2024-02-23T07:54:36;37.33;;;16.97;;
72325;SDS011;60278;47.980;18.780;2024-02-23T07:57:38;7.15;;;4.47;;
72325;SDS011;60278;47.980;18.780;2024-02-23T08:00:41;6.55;;;4.00;;
72325;SDS011;60278;47.980;18.780;2024-02-23T08:03:43;4.45;;;2.10;;
72325;SDS011;60278;47.980;18.780;2024-02-23T08:06:45;4.10;;;2.58;;
72325;SDS011;60278;47.980;18.780;2024-02-23T08:09:47;3.87;;;2.37;;
72325;SDS011;60278;47.980;18.780;2024-02-23T08:12:49;5.68;;;2.22;;
72325;SDS011;60278;47.980;18.780;2024-02-23T08:15:51;3.53;;;2.00;;
72325;SDS011;60278;47.980;18.780;2024-02-23T08:18:56;5.93;;;2.08;;
72325;SDS011;60278;47.980;18.780;2024-02-23T08:21:58;4.07;;;2.25;;
72325;SDS011;60278;47.980;18.780;2024-02-23T08:25:00;3.00;;;1.67;;
72325;SDS011;60278;47.980;18.780;2024-02-23T08:28:02;4.97;;;2.20;;
72325;SDS011;60278;47.980;18.780;2024-02-23T08:31:04;3.25;;;1.63;;
72325;SDS011;60278;47.980;18.780;2024-02-23T08:34:06;3.70;;;1.70;;
72325;SDS011;60278;47.980;18.780;2024-02-23T08:37:08;2.63;;;1.73;;
72325;SDS011;60278;47.980;18.780;2024-02-23T08:40:11;3.50;;;1.73;;
72325;SDS011;60278;47.980;18.780;2024-02-23T08:43:13;3.47;;;1.90;;
72325;SDS011;60278;47.980;18.780;2024-02-23T08:46:15;4.80;;;2.15;;
72325;SDS011;60278;47.980;18.780;2024-02-23T08:49:17;4.13;;;1.90;;
72325;SDS011;60278;47.980;18.780;2024-02-23T08:52:20;6.47;;;2.90;;
72325;SDS011;60278;47.980;18.780;2024-02-23T08:55:22;6.33;;;3.60;;
72325;SDS011;60278;47.980;18.780;2024-02-23T08:58:24;4.47;;;2.28;;
72325;SDS011;60278;47.980;18.780;2024-02-23T09:01:26;7.00;;;3.80;;
72325;SDS011;60278;47.980;18.780;2024-02-23T09:04:29;6.57;;;3.85;;
72325;SDS011;60278;47.980;18.780;2024-02-23T09:07:31;7.35;;;4.35;;
72325;SDS011;60278;47.980;18.780;2024-02-23T09:10:33;6.83;;;3.97;;
72325;SDS011;60278;47.980;18.780;2024-02-23T09:13:35;17.95;;;7.85;;
72325;SDS011;60278;47.980;18.780;2024-02-23T09:16:38;8.45;;;4.25;;
72325;SDS011;60278;47.980;18.780;2024-02-23T09:19:43;14.60;;;6.40;;
72325;SDS011;60278;47.980;18.780;2024-02-23T09:22:45;16.42;;;7.80;;
72325;SDS011;60278;47.980;18.780;2024-02-23T09:25:47;8.37;;;4.50;;
72325;SDS011;60278;47.980;18.780;2024-02-23T09:28:49;10.10;;;5.10;;
72325;SDS011;60278;47.980;18.780;2024-02-23T09:31:51;6.78;;;3.50;;
72325;SDS011;60278;47.980;18.780;2024-02-23T09:34:54;6.03;;;3.45;;
72325;SDS011;60278;47.980;18.780;2024-02-23T09:37:56;4.72;;;2.70;;
72325;SDS011;60278;47.980;18.780;2024-02-23T09:40:58;5.50;;;2.73;;
72325;SDS011;60278;47.980;18.780;2024-02-23T09:44:02;5.97;;;3.67;;
72325;SDS011;60278;47.980;18.780;2024-02-23T09:47:05;7.28;;;3.40;;
72325;SDS011;60278;47.980;18.780;2024-02-23T09:50:12;4.53;;;2.67;;
72325;SDS011;60278;47.980;18.780;2024-02-23T09:53:15;7.88;;;4.47;;
72325;SDS011;60278;47.980;18.780;2024-02-23T09:56:20;6.40;;;3.60;;
72325;SDS011;60278;47.980;18.780;2024-02-23T09:59:23;5.88;;;3.75;;
72325;SDS011;60278;47.980;18.780;2024-02-23T10:02:34;4.28;;;2.72;;
72325;SDS011;60278;47.980;18.780;2024-02-23T10:05:37;7.47;;;3.20;;
72325;SDS011;60278;47.980;18.780;2024-02-23T10:08:43;4.03;;;2.22;;
72325;SDS011;60278;47.980;18.780;2024-02-23T10:11:45;7.40;;;3.40;;
72325;SDS011;60278;47.980;18.780;2024-02-23T10:14:53;7.28;;;3.35;;
72325;SDS011;60278;47.980;18.780;2024-02-23T10:17:55;5.55;;;2.63;;
72325;SDS011;60278;47.980;18.780;2024-02-23T10:20:57;8.35;;;4.15;;
72325;SDS011;60278;47.980;18.780;2024-02-23T10:24:00;10.57;;;5.35;;
72325;SDS011;60278;47.980;18.780;2024-02-23T10:27:04;23.43;;;9.90;;
72325;SDS011;60278;47.980;18.780;2024-02-23T10:30:06;23.38;;;9.90;;
72325;SDS011;60278;47.980;18.780;2024-02-23T10:33:12;14.25;;;6.63;;
72325;SDS011;60278;47.980;18.780;2024-02-23T10:36:15;9.82;;;4.80;;
72325;SDS011;60278;47.980;18.780;2024-02-23T10:39:25;8.20;;;4.63;;
72325;SDS011;60278;47.980;18.780;2024-02-23T10:42:34;3.70;;;2.10;;
72325;SDS011;60278;47.980;18.780;2024-02-23T10:45:38;3.80;;;1.77;;
72325;SDS011;60278;47.980;18.780;2024-02-23T10:48:43;6.93;;;3.95;;
72325;SDS011;60278;47.980;18.780;2024-02-23T10:51:45;4.00;;;2.00;;
72325;SDS011;60278;47.980;18.780;2024-02-23T10:54:49;4.10;;;2.40;;
72325;SDS011;60278;47.980;18.780;2024-02-23T10:57:53;4.70;;;3.20;;
72325;SDS011;60278;47.980;18.780;2024-02-23T11:01:00;3.00;;;1.70;;
72325;SDS011;60278;47.980;18.780;2024-02-23T11:04:02;4.03;;;2.30;;
72325;SDS011;60278;47.980;18.780;2024-02-23T11:07:12;4.60;;;1.90;;
72325;SDS011;60278;47.980;18.780;2024-02-23T11:10:15;3.35;;;1.73;;
72325;SDS011;60278;47.980;18.780;2024-02-23T11:13:17;2.80;;;1.50;;
72325;SDS011;60278;47.980;18.780;2024-02-23T11:16:23;3.38;;;1.70;;
72325;SDS011;60278;47.980;18.780;2024-02-23T11:19:37;3.17;;;1.70;;
72325;SDS011;60278;47.980;18.780;2024-02-23T11:22:40;2.58;;;1.40;;
72325;SDS011;60278;47.980;18.780;2024-02-23T11:25:42;3.53;;;1.48;;
72325;SDS011;60278;47.980;18.780;2024-02-23T11:28:48;3.10;;;1.27;;
72325;SDS011;60278;47.980;18.780;2024-02-23T11:31:51;2.70;;;1.30;;
72325;SDS011;60278;47.980;18.780;2024-02-23T11:34:58;6.28;;;1.70;;
72325;SDS011;60278;47.980;18.780;2024-02-23T11:38:00;3.78;;;1.92;;
72325;SDS011;60278;47.980;18.780;2024-02-23T11:41:07;3.22;;;1.80;;
72325;SDS011;60278;47.980;18.780;2024-02-23T11:44:10;5.20;;;2.17;;
72325;SDS011;60278;47.980;18.780;2024-02-23T11:47:15;6.55;;;3.30;;
72325;SDS011;60278;47.980;18.780;2024-02-23T11:50:18;7.88;;;4.10;;
72325;SDS011;60278;47.980;18.780;2024-02-23T11:53:23;7.38;;;3.47;;
72325;SDS011;60278;47.980;18.780;2024-02-23T11:56:27;4.40;;;2.80;;
72325;SDS011;60278;47.980;18.780;2024-02-23T11:59:30;6.10;;;3.60;;
72325;SDS011;60278;47.980;18.780;2024-02-23T12:02:33;15.05;;;8.00;;
72325;SDS011;60278;47.980;18.780;2024-02-23T12:05:36;49.70;;;23.02;;
72325;SDS011;60278;47.980;18.780;2024-02-23T12:08:38;62.17;;;29.92;;
72325;SDS011;60278;47.980;18.780;2024-02-23T12:11:40;82.63;;;37.40;;
72325;SDS011;60278;47.980;18.780;2024-02-23T12:14:43;56.30;;;23.33;;
72325;SDS011;60278;47.980;18.780;2024-02-23T12:17:46;50.47;;;20.52;;
72325;SDS011;60278;47.980;18.780;2024-02-23T12:20:49;22.05;;;9.23;;
72325;SDS011;60278;47.980;18.780;2024-02-23T12:23:51;9.80;;;4.43;;
72325;SDS011;60278;47.980;18.780;2024-02-23T12:26:54;35.80;;;16.15;;
72325;SDS011;60278;47.980;18.780;2024-02-23T12:29:56;23.80;;;9.77;;
72325;SDS011;60278;47.980;18.780;2024-02-23T12:33:05;43.90;;;17.42;;
72325;SDS011;60278;47.980;18.780;2024-02-23T12:36:10;7.28;;;3.58;;
72325;SDS011;60278;47.980;18.780;2024-02-23T12:39:12;33.30;;;12.43;;
72325;SDS011;60278;47.980;18.780;2024-02-23T12:42:17;61.88;;;21.35;;
72325;SDS011;60278;47.980;18.780;2024-02-23T12:45:19;26.63;;;10.47;;
72325;SDS011;60278;47.980;18.780;2024-02-23T12:48:22;38.42;;;13.52;;
72325;SDS011;60278;47.980;18.780;2024-02-23T12:51:25;44.35;;;16.58;;
72325;SDS011;60278;47.980;18.780;2024-02-23T12:54:28;11.35;;;5.50;;
72325;SDS011;60278;47.980;18.780;2024-02-23T12:57:30;10.20;;;5.13;;
72325;SDS011;60278;47.980;18.780;2024-02-23T13:00:32;20.10;;;9.47;;
72325;SDS011;60278;47.980;18.780;2024-02-23T13:03:34;10.57;;;5.60;;
72325;SDS011;60278;47.980;18.780;2024-02-23T13:06:37;11.85;;;6.05;;
72325;SDS011;60278;47.980;18.780;2024-02-23T13:09:40;13.02;;;7.03;;
72325;SDS011;60278;47.980;18.780;2024-02-23T13:12:42;21.15;;;8.63;;
72325;SDS011;60278;47.980;18.780;2024-02-23T13:15:44;20.27;;;7.40;;
72325;SDS011;60278;47.980;18.780;2024-02-23T13:18:46;8.25;;;3.78;;
72325;SDS011;60278;47.980;18.780;2024-02-23T13:21:49;4.60;;;2.45;;
72325;SDS011;60278;47.980;18.780;2024-02-23T13:24:51;4.57;;;2.90;;
72325;SDS011;60278;47.980;18.780;2024-02-23T13:27:53;5.07;;;2.65;;
72325;SDS011;60278;47.980;18.780;2024-02-23T13:30:55;9.37;;;4.70;;
72325;SDS011;60278;47.980;18.780;2024-02-23T13:33:57;26.25;;;10.52;;
72325;SDS011;60278;47.980;18.780;2024-02-23T13:37:00;37.33;;;16.23;;
72325;SDS011;60278;47.980;18.780;2024-02-23T13:40:02;13.82;;;7.20;;
72325;SDS011;60278;47.980;18.780;2024-02-23T13:43:05;7.75;;;5.15;;
72325;SDS011;60278;47.980;18.780;2024-02-23T13:46:07;9.17;;;5.20;;
72325;SDS011;60278;47.980;18.780;2024-02-23T13:49:09;11.15;;;6.60;;
72325;SDS011;60278;47.980;18.780;2024-02-23T13:52:13;13.38;;;8.00;;
72325;SDS011;60278;47.980;18.780;2024-02-23T13:55:15;9.90;;;5.38;;
72325;SDS011;60278;47.980;18.780;2024-02-23T13:58:17;12.82;;;8.90;;
72325;SDS011;60278;47.980;18.780;2024-02-23T14:01:20;15.03;;;9.53;;
72325;SDS011;60278;47.980;18.780;2024-02-23T14:04:22;7.47;;;5.25;;
72325;SDS011;60278;47.980;18.780;2024-02-23T14:07:24;12.32;;;7.90;;
72325;SDS011;60278;47.980;18.780;2024-02-23T14:10:26;17.63;;;10.25;;
72325;SDS011;60278;47.980;18.780;2024-02-23T14:13:28;26.85;;;16.70;;
72325;SDS011;60278;47.980;18.780;2024-02-23T14:16:30;33.33;;;15.47;;
72325;SDS011;60278;47.980;18.780;2024-02-23T14:19:32;22.60;;;12.23;;
72325;SDS011;60278;47.980;18.780;2024-02-23T14:22:37;16.42;;;9.30;;
72325;SDS011;60278;47.980;18.780;2024-02-23T14:25:39;14.55;;;8.50;;
72325;SDS011;60278;47.980;18.780;2024-02-23T14:28:42;13.15;;;6.80;;
72325;SDS011;60278;47.980;18.780;2024-02-23T14:31:44;15.37;;;9.43;;
72325;SDS011;60278;47.980;18.780;2024-02-23T14:34:47;9.13;;;5.93;;
72325;SDS011;60278;47.980;18.780;2024-02-23T14:37:50;10.90;;;7.25;;
72325;SDS011;60278;47.980;18.780;2024-02-23T14:40:52;8.35;;;5.20;;
72325;SDS011;60278;47.980;18.780;2024-02-23T14:43:54;10.52;;;4.97;;
72325;SDS011;60278;47.980;18.780;2024-02-23T14:46:56;4.53;;;2.53;;
72325;SDS011;60278;47.980;18.780;2024-02-23T14:49:58;5.93;;;3.17;;
72325;SDS011;60278;47.980;18.780;2024-02-23T14:53:01;8.77;;;4.63;;
72325;SDS011;60278;47.980;18.780;2024-02-23T14:56:03;11.05;;;6.72;;
72325;SDS011;60278;47.980;18.780;2024-02-23T14:59:06;13.30;;;7.47;;
72325;SDS011;60278;47.980;18.780;2024-02-23T15:02:11;14.37;;;8.87;;
72325;SDS011;60278;47.980;18.780;2024-02-23T15:05:16;18.13;;;11.65;;
72325;SDS011;60278;47.980;18.780;2024-02-23T15:08:19;21.85;;;14.15;;
72325;SDS011;60278;47.980;18.780;2024-02-23T15:11:22;31.65;;;19.08;;
72325;SDS011;60278;47.980;18.780;2024-02-23T15:14:24;23.58;;;15.90;;
72325;SDS011;60278;47.980;18.780;2024-02-23T15:17:26;24.07;;;16.33;;
72325;SDS011;60278;47.980;18.780;2024-02-23T15:20:29;23.20;;;12.43;;
72325;SDS011;60278;47.980;18.780;2024-02-23T15:23:31;24.60;;;13.68;;
72325;SDS011;60278;47.980;18.780;2024-02-23T15:26:33;24.20;;;11.60;;
72325;SDS011;60278;47.980;18.780;2024-02-23T15:29:35;12.40;;;8.10;;
72325;SDS011;60278;47.980;18.780;2024-02-23T15:32:37;19.60;;;9.70;;
72325;SDS011;60278;47.980;18.780;2024-02-23T15:35:40;14.40;;;9.85;;
72325;SDS011;60278;47.980;18.780;2024-02-23T15:38:42;14.20;;;9.77;;
72325;SDS011;60278;47.980;18.780;2024-02-23T15:41:45;13.18;;;8.10;;
72325;SDS011;60278;47.980;18.780;2024-02-23T15:44:47;13.57;;;8.18;;
72325;SDS011;60278;47.980;18.780;2024-02-23T15:47:49;16.17;;;9.20;;
72325;SDS011;60278;47.980;18.780;2024-02-23T15:50:52;10.98;;;6.40;;
72325;SDS011;60278;47.980;18.780;2024-02-23T15:54:14;14.45;;;9.15;;
72325;SDS011;60278;47.980;18.780;2024-02-23T15:57:16;21.30;;;13.25;;
72325;SDS011;60278;47.980;18.780;2024-02-23T16:00:18;12.65;;;8.85;;
72325;SDS011;60278;47.980;18.780;2024-02-23T16:03:20;13.60;;;9.17;;
72325;SDS011;60278;47.980;18.780;2024-02-23T16:06:23;14.23;;;9.07;;
72325;SDS011;60278;47.980;18.780;2024-02-23T16:09:27;16.23;;;9.90;;
72325;SDS011;60278;47.980;18.780;2024-02-23T16:12:29;17.85;;;10.40;;
72325;SDS011;60278;47.980;18.780;2024-02-23T16:15:31;17.75;;;10.45;;
72325;SDS011;60278;47.980;18.780;2024-02-23T16:18:34;19.20;;;12.60;;
72325;SDS011;60278;47.980;18.780;2024-02-23T16:21:36;14.48;;;10.18;;
72325;SDS011;60278;47.980;18.780;2024-02-23T16:24:39;16.73;;;10.85;;
72325;SDS011;60278;47.980;18.780;2024-02-23T16:27:44;17.25;;;9.05;;
72325;SDS011;60278;47.980;18.780;2024-02-23T16:30:47;11.63;;;7.97;;
72325;SDS011;60278;47.980;18.780;2024-02-23T16:33:49;13.37;;;8.60;;
72325;SDS011;60278;47.980;18.780;2024-02-23T16:36:51;13.32;;;8.00;;
72325;SDS011;60278;47.980;18.780;2024-02-23T16:39:53;13.38;;;8.55;;
72325;SDS011;60278;47.980;18.780;2024-02-23T16:42:56;11.60;;;7.90;;
72325;SDS011;60278;47.980;18.780;2024-02-23T16:45:58;13.27;;;8.18;;
72325;SDS011;60278;47.980;18.780;2024-02-23T16:49:00;11.30;;;7.73;;
72325;SDS011;60278;47.980;18.780;2024-02-23T16:52:03;12.82;;;8.00;;
72325;SDS011;60278;47.980;18.780;2024-02-23T16:55:05;13.82;;;9.02;;
72325;SDS011;60278;47.980;18.780;2024-02-23T16:58:08;11.43;;;7.63;;
72325;SDS011;60278;47.980;18.780;2024-02-23T17:01:10;12.95;;;6.97;;
72325;SDS011;60278;47.980;18.780;2024-02-23T17:04:13;13.57;;;7.00;;
72325;SDS011;60278;47.980;18.780;2024-02-23T17:07:15;10.88;;;6.18;;
72325;SDS011;60278;47.980;18.780;2024-02-23T17:10:17;11.10;;;7.22;;
72325;SDS011;60278;47.980;18.780;2024-02-23T17:13:19;15.90;;;8.50;;
72325;SDS011;60278;47.980;18.780;2024-02-23T17:16:21;16.02;;;7.78;;
72325;SDS011;60278;47.980;18.780;2024-02-23T17:19:29;14.87;;;6.80;;
72325;SDS011;60278;47.980;18.780;2024-02-23T17:22:31;29.73;;;10.73;;
72325;SDS011;60278;47.980;18.780;2024-02-23T17:25:33;13.38;;;7.38;;
72325;SDS011;60278;47.980;18.780;2024-02-23T17:28:36;11.00;;;6.68;;
72325;SDS011;60278;47.980;18.780;2024-02-23T17:31:39;15.55;;;7.35;;
72325;SDS011;60278;47.980;18.780;2024-02-23T17:34:42;88.83;;;35.40;;
72325;SDS011;60278;47.980;18.780;2024-02-23T17:37:44;24.98;;;13.45;;
72325;SDS011;60278;47.980;18.780;2024-02-23T17:40:46;12.60;;;7.88;;
72325;SDS011;60278;47.980;18.780;2024-02-23T17:43:52;12.90;;;7.85;;
72325;SDS011;60278;47.980;18.780;2024-02-23T17:46:54;15.20;;;8.85;;
72325;SDS011;60278;47.980;18.780;2024-02-23T17:49:56;15.17;;;8.90;;
72325;SDS011;60278;47.980;18.780;2024-02-23T17:52:59;13.50;;;8.07;;